Walmsley, Virginia
Current Conditions -  °F | °C
As of 8:40 PM on Wednesday 26 Nov 2014 (Local Time) from KNUI Reporting Station
Overcast Overcast  
Wind Chill: 33°   Ceiling: 1500
Heat Index: 39°   Visibility: 10mi
Dew Point: 34°   Wind: 9mph
Humidity: 82%   Direction: 290°WNW
Pressure: 29.94"   Gusts: NA
Location:  37.9748°N, 76.5747°W
Report Text: KNUI 270140Z AUTO 29008KT 10SM FEW009 OVC015 04/01 A2994 RMK AO2 T00390011
Loading
Personal Weather Stations






























Interactive Weather Map New forecast layout! Learn more

10-Day Weather Forecast

Advertisements
Track Severe Weather on mobile